createdAt,value
2019-03-08T00:01:49.750Z,10.10
2019-03-08T00:04:19.558Z,10.10
2019-03-08T00:06:49.286Z,10.20
2019-03-08T00:09:18.932Z,10.20
2019-03-08T00:11:48.667Z,10.10
2019-03-08T00:14:18.308Z,10.10
2019-03-08T00:16:48.264Z,10.10
2019-03-08T00:19:17.913Z,10.10
2019-03-08T00:21:47.566Z,10.10
2019-03-08T00:24:17.226Z,10.10
2019-03-08T00:26:46.884Z,10.10
2019-03-08T00:29:16.691Z,10.10
2019-03-08T00:31:46.453Z,10.00
2019-03-08T00:34:16.106Z,10.00
2019-03-08T00:36:45.887Z,10.00
2019-03-08T00:39:15.679Z,10.00
2019-03-08T00:41:45.311Z,10.00
2019-03-08T00:44:14.959Z,9.90
2019-03-08T00:46:44.727Z,9.90
2019-03-08T00:49:14.439Z,9.90
2019-03-08T00:51:44.073Z,9.90
2019-03-08T00:54:13.720Z,9.90
2019-03-08T00:56:43.367Z,9.90
2019-03-08T00:59:16.280Z,9.90
2019-03-08T01:01:45.912Z,9.90
2019-03-08T01:04:15.635Z,9.90
2019-03-08T01:06:45.289Z,9.90
2019-03-08T01:09:14.936Z,9.80
2019-03-08T01:11:45.349Z,9.90
2019-03-08T01:14:15.099Z,9.90
2019-03-08T01:16:46.421Z,9.90
2019-03-08T01:19:16.064Z,9.90
2019-03-08T01:21:45.721Z,9.90
2019-03-08T01:24:15.724Z,10.00
2019-03-08T01:26:45.363Z,9.90
2019-03-08T01:29:15.156Z,10.00
2019-03-08T01:31:44.799Z,10.00
2019-03-08T01:34:14.535Z,10.00
2019-03-08T01:36:44.485Z,10.00
2019-03-08T01:39:14.204Z,10.00
2019-03-08T01:41:43.918Z,10.00
2019-03-08T01:44:13.679Z,10.00
2019-03-08T01:46:43.319Z,10.00
2019-03-08T01:49:12.967Z,10.00
2019-03-08T01:51:42.684Z,9.90
2019-03-08T01:54:12.340Z,9.90
2019-03-08T01:56:42.937Z,9.90
2019-03-08T01:59:12.803Z,9.80
2019-03-08T02:01:42.592Z,9.80
2019-03-08T02:04:12.641Z,9.70
2019-03-08T02:06:42.324Z,9.70
2019-03-08T02:09:11.966Z,9.70
2019-03-08T02:11:41.767Z,9.70
2019-03-08T02:14:11.425Z,9.60
2019-03-08T02:16:41.505Z,9.60
2019-03-08T02:19:11.155Z,9.60
2019-03-08T02:21:41.827Z,9.60
2019-03-08T02:24:12.626Z,9.60
2019-03-08T02:26:42.295Z,9.60
2019-03-08T02:29:11.935Z,9.60
2019-03-08T02:31:41.663Z,9.60
2019-03-08T02:34:11.318Z,9.60
2019-03-08T02:36:41.043Z,9.60
2019-03-08T02:39:10.764Z,9.60
2019-03-08T02:41:41.381Z,9.60
2019-03-08T02:44:11.107Z,9.60
2019-03-08T02:46:40.851Z,9.60
2019-03-08T02:49:10.580Z,9.60
2019-03-08T02:51:40.293Z,9.60
2019-03-08T02:54:10.014Z,9.60
2019-03-08T02:56:40.639Z,9.60
2019-03-08T02:59:10.314Z,9.60
2019-03-08T03:01:39.975Z,9.60
2019-03-08T03:04:09.624Z,9.60
2019-03-08T03:06:39.348Z,9.60
2019-03-08T03:09:09.235Z,9.60
2019-03-08T03:11:40.561Z,9.60
2019-03-08T03:14:10.284Z,9.60
2019-03-08T03:16:39.936Z,9.60
2019-03-08T03:19:09.585Z,9.60
2019-03-08T03:21:39.244Z,9.70
2019-03-08T03:24:08.965Z,9.60
2019-03-08T03:26:38.778Z,9.60
2019-03-08T03:29:08.415Z,9.70
2019-03-08T03:31:38.079Z,9.70
2019-03-08T03:34:07.739Z,9.70
2019-03-08T03:36:37.469Z,9.70
2019-03-08T03:39:07.655Z,9.70
2019-03-08T03:41:37.314Z,9.70
2019-03-08T03:44:10.087Z,9.70
2019-03-08T03:46:39.867Z,9.80
2019-03-08T03:49:09.518Z,9.80
2019-03-08T03:51:39.184Z,9.80
2019-03-08T03:54:08.841Z,9.80
2019-03-08T03:56:38.507Z,9.80
2019-03-08T03:59:08.175Z,9.80
2019-03-08T04:01:42.247Z,9.80
2019-03-08T04:04:12.052Z,9.80
2019-03-08T04:06:41.710Z,9.80
2019-03-08T04:09:12.683Z,9.90
2019-03-08T04:11:42.409Z,9.80
2019-03-08T04:14:12.706Z,9.80
2019-03-08T04:16:42.554Z,9.80
2019-03-08T04:19:12.316Z,9.80
2019-03-08T04:21:42.117Z,9.80
2019-03-08T04:24:11.780Z,9.80
2019-03-08T04:26:41.437Z,9.80
2019-03-08T04:29:11.364Z,9.80
2019-03-08T04:31:41.012Z,9.80
2019-03-08T04:34:10.676Z,9.80
2019-03-08T04:36:40.331Z,9.80
2019-03-08T04:39:10.065Z,9.80
2019-03-08T04:41:39.724Z,9.80
2019-03-08T04:44:09.455Z,9.80
2019-03-08T04:46:39.117Z,9.80
2019-03-08T04:49:08.800Z,9.90
2019-03-08T04:51:38.528Z,9.80
2019-03-08T04:54:08.185Z,9.80
2019-03-08T04:56:38.192Z,9.80
2019-03-08T04:59:07.847Z,9.90
2019-03-08T05:01:37.504Z,9.90
2019-03-08T05:04:07.162Z,9.90
2019-03-08T05:06:36.820Z,9.90
2019-03-08T05:09:07.444Z,9.90
2019-03-08T05:11:37.234Z,9.90
2019-03-08T05:14:06.904Z,9.90
2019-03-08T05:16:36.550Z,9.90
2019-03-08T05:19:06.287Z,9.90
2019-03-08T05:21:35.945Z,9.90
2019-03-08T05:24:05.995Z,9.90
2019-03-08T05:26:35.660Z,9.90
2019-03-08T05:29:05.391Z,9.90
2019-03-08T05:31:35.133Z,9.90
2019-03-08T05:34:04.944Z,9.90
2019-03-08T05:36:34.595Z,9.90
2019-03-08T05:39:07.989Z,9.90
2019-03-08T05:41:37.648Z,9.90
2019-03-08T05:44:07.306Z,9.90
2019-03-08T05:46:36.965Z,9.90
2019-03-08T05:49:06.704Z,9.90
2019-03-08T05:51:36.623Z,9.90
2019-03-08T05:54:07.280Z,9.90
2019-03-08T05:56:37.095Z,9.90
2019-03-08T05:59:06.760Z,9.90
2019-03-08T06:01:36.516Z,9.90
2019-03-08T06:04:06.212Z,9.90
2019-03-08T06:06:35.875Z,9.90
2019-03-08T06:09:07.960Z,9.80
2019-03-08T06:11:37.616Z,9.90
2019-03-08T06:14:07.280Z,9.90
2019-03-08T06:16:37.909Z,9.90
2019-03-08T06:19:07.882Z,9.80
2019-03-08T06:21:37.538Z,9.80
2019-03-08T06:24:07.839Z,9.80
2019-03-08T06:26:37.509Z,9.90
2019-03-08T06:29:07.171Z,9.80
2019-03-08T06:31:36.959Z,9.80
2019-03-08T06:34:06.626Z,9.80
2019-03-08T06:36:36.297Z,9.80
2019-03-08T06:39:07.480Z,9.80
2019-03-08T06:41:37.131Z,9.80
2019-03-08T06:44:06.880Z,9.80
2019-03-08T06:46:37.004Z,9.80
2019-03-08T06:49:06.668Z,9.80
2019-03-08T06:51:36.391Z,9.80
2019-03-08T06:54:06.055Z,9.80
2019-03-08T06:56:35.716Z,9.80
2019-03-08T06:59:30.655Z,9.80
2019-03-08T07:02:00.396Z,9.80
2019-03-08T07:04:30.062Z,9.80
2019-03-08T07:07:00.791Z,9.80
2019-03-08T07:09:30.740Z,9.80
2019-03-08T07:12:00.387Z,9.80
2019-03-08T07:14:30.054Z,9.80
2019-03-08T07:16:59.712Z,9.80
2019-03-08T07:19:29.374Z,9.80
2019-03-08T07:22:33.608Z,9.80
2019-03-08T07:25:37.679Z,9.80
2019-03-08T07:28:18.669Z,9.80
2019-03-08T07:31:06.231Z,9.80
2019-03-08T07:34:04.672Z,9.90
2019-03-08T07:36:49.836Z,9.90
2019-03-08T07:39:37.817Z,9.90
2019-03-08T07:42:25.513Z,10.00
2019-03-08T07:45:29.370Z,10.00
2019-03-08T07:48:30.380Z,10.10
2019-03-08T07:51:28.088Z,10.10
2019-03-08T07:54:03.073Z,10.10
2019-03-08T07:57:01.212Z,10.20
2019-03-08T07:59:53.794Z,10.10
2019-03-08T08:02:38.572Z,10.10
2019-03-08T08:05:27.406Z,10.10
2019-03-08T08:08:21.951Z,10.10
2019-03-08T08:11:00.303Z,10.10
2019-03-08T08:13:56.132Z,10.10
2019-03-08T08:16:50.801Z,10.10
2019-03-08T08:19:31.701Z,10.10
2019-03-08T08:22:12.288Z,10.10
2019-03-08T08:25:01.264Z,10.10
2019-03-08T08:27:53.021Z,10.10
2019-03-08T08:30:50.894Z,10.00
2019-03-08T08:33:47.219Z,9.90
2019-03-08T08:36:44.849Z,9.80
2019-03-08T08:39:41.051Z,9.70
2019-03-08T08:42:45.213Z,9.70
2019-03-08T08:45:36.968Z,9.60
2019-03-08T08:48:15.017Z,9.60
2019-03-08T08:50:52.763Z,9.80
2019-03-08T08:53:47.964Z,10.10
2019-03-08T08:56:36.748Z,10.50
2019-03-08T08:59:28.435Z,10.80
2019-03-08T09:02:10.237Z,11.20
2019-03-08T09:04:49.763Z,11.60
2019-03-08T09:07:34.944Z,11.90
2019-03-08T09:10:27.081Z,12.10
2019-03-08T09:13:16.848Z,12.20
2019-03-08T09:16:02.020Z,12.30
2019-03-08T09:19:01.076Z,12.60
2019-03-08T09:21:53.076Z,13.00
2019-03-08T09:24:42.103Z,13.60
2019-03-08T09:27:23.878Z,14.20
2019-03-08T09:29:59.450Z,14.90
2019-03-08T09:32:37.137Z,15.50
2019-03-08T09:35:22.307Z,16.00
2019-03-08T09:38:03.589Z,16.40
2019-03-08T09:40:48.323Z,16.90
2019-03-08T09:43:32.991Z,17.30
2019-03-08T09:46:30.961Z,17.50
2019-03-08T09:49:09.989Z,17.60
2019-03-08T09:51:45.536Z,17.70
2019-03-08T09:54:37.968Z,17.80
2019-03-08T09:57:29.552Z,17.70
2019-03-08T10:00:17.167Z,17.60
2019-03-08T10:02:59.979Z,17.30
2019-03-08T10:05:43.363Z,17.00
2019-03-08T10:08:21.256Z,16.70
2019-03-08T10:11:06.028Z,16.30
2019-03-08T10:13:42.193Z,16.00
2019-03-08T10:16:25.221Z,15.80
2019-03-08T10:19:11.610Z,15.70
2019-03-08T10:21:53.283Z,15.70
2019-03-08T10:24:41.723Z,15.70
2019-03-08T10:27:37.795Z,15.70
2019-03-08T10:30:22.768Z,15.70
2019-03-08T10:33:08.000Z,15.70
2019-03-08T10:35:44.310Z,15.70
2019-03-08T10:38:29.229Z,15.70
2019-03-08T10:41:24.337Z,15.70
2019-03-08T10:44:11.502Z,15.60
2019-03-08T10:46:57.224Z,15.50
2019-03-08T10:49:54.734Z,15.20
2019-03-08T10:52:27.976Z,15.00
2019-03-08T10:55:13.440Z,14.70
2019-03-08T10:58:11.206Z,14.40
2019-03-08T11:00:59.177Z,14.10
2019-03-08T11:03:50.976Z,13.80
2019-03-08T11:06:32.253Z,13.60
2019-03-08T11:09:21.039Z,13.40
2019-03-08T11:12:09.144Z,13.30
2019-03-08T11:14:59.520Z,13.20
2019-03-08T11:17:54.078Z,13.10
2019-03-08T11:20:41.481Z,13.10
2019-03-08T11:23:20.971Z,13.10
2019-03-08T11:26:21.771Z,13.10
2019-03-08T11:29:11.649Z,13.00
2019-03-08T11:31:59.487Z,13.00
2019-03-08T11:34:40.188Z,13.00
2019-03-08T11:37:17.703Z,12.90
2019-03-08T11:40:06.444Z,12.80
2019-03-08T11:42:54.305Z,12.70
2019-03-08T11:45:32.564Z,12.50
2019-03-08T11:48:30.615Z,12.40
2019-03-08T11:51:14.583Z,12.20
2019-03-08T11:53:56.587Z,12.00
2019-03-08T11:57:01.927Z,11.90
2019-03-08T11:59:52.007Z,11.90
2019-03-08T12:02:37.388Z,11.80
2019-03-08T12:05:18.071Z,11.80
2019-03-08T12:08:05.537Z,11.80
2019-03-08T12:10:52.988Z,11.70
2019-03-08T12:13:32.744Z,11.70
2019-03-08T12:16:24.633Z,11.60
2019-03-08T12:19:05.337Z,11.60
2019-03-08T12:21:44.138Z,11.60
2019-03-08T12:24:44.936Z,11.60
2019-03-08T12:27:36.504Z,11.60
2019-03-08T12:30:25.392Z,11.60
2019-03-08T12:33:04.285Z,11.70
2019-03-08T12:35:56.041Z,11.70
2019-03-08T12:38:37.084Z,11.80
2019-03-08T12:41:27.468Z,11.80
2019-03-08T12:44:13.775Z,11.80
2019-03-08T12:46:51.764Z,11.80
2019-03-08T12:49:38.478Z,11.80
2019-03-08T12:52:23.604Z,11.80
2019-03-08T12:55:12.375Z,11.90
2019-03-08T12:57:59.903Z,11.90
2019-03-08T13:00:39.442Z,12.00
2019-03-08T13:03:46.633Z,12.00
2019-03-08T13:06:33.987Z,12.10
2019-03-08T13:09:27.307Z,12.10
2019-03-08T13:11:56.970Z,12.10
2019-03-08T13:14:26.635Z,12.10
2019-03-08T13:16:56.303Z,12.10
2019-03-08T13:19:26.047Z,12.10
2019-03-08T13:21:56.084Z,12.10
2019-03-08T13:24:25.752Z,12.10
2019-03-08T13:26:55.556Z,12.10
2019-03-08T13:29:25.321Z,12.10
2019-03-08T13:31:55.050Z,12.00
2019-03-08T13:34:24.845Z,12.00
2019-03-08T13:36:54.501Z,11.90
2019-03-08T13:39:25.244Z,11.80
2019-03-08T13:41:55.004Z,11.70
2019-03-08T13:44:24.773Z,11.50
2019-03-08T13:46:54.438Z,11.40
2019-03-08T13:49:24.367Z,11.30
2019-03-08T13:51:54.012Z,11.20
2019-03-08T13:54:23.692Z,11.10
2019-03-08T13:56:53.335Z,11.20
2019-03-08T13:59:23.015Z,11.20
2019-03-08T14:01:52.771Z,11.20
2019-03-08T14:04:22.444Z,11.30
2019-03-08T14:06:52.116Z,11.30
2019-03-08T14:09:21.865Z,11.40
2019-03-08T14:11:51.523Z,11.40
2019-03-08T14:14:21.200Z,11.50
2019-03-08T14:16:50.876Z,11.60
2019-03-08T14:19:20.545Z,11.70
2019-03-08T14:21:50.212Z,11.80
2019-03-08T14:24:19.905Z,11.90
2019-03-08T14:26:49.622Z,11.90
2019-03-08T14:29:22.267Z,11.90
2019-03-08T14:31:54.802Z,11.90
2019-03-08T14:34:24.482Z,12.00
2019-03-08T14:36:54.212Z,12.00
2019-03-08T14:39:23.887Z,12.00
2019-03-08T14:42:07.571Z,12.00
2019-03-08T14:45:07.788Z,12.00
2019-03-08T14:47:39.362Z,12.00
2019-03-08T14:50:11.191Z,11.90
2019-03-08T14:52:40.912Z,11.90
2019-03-08T14:55:13.041Z,11.90
2019-03-08T14:57:42.849Z,11.80
2019-03-08T15:00:18.717Z,11.80
2019-03-08T15:02:48.673Z,11.80
2019-03-08T15:05:19.224Z,11.90
2019-03-08T15:07:50.022Z,12.00
2019-03-08T15:10:20.360Z,12.00
2019-03-08T15:12:50.096Z,12.10
2019-03-08T15:15:19.913Z,12.10
2019-03-08T15:17:53.377Z,12.20
2019-03-08T15:20:21.171Z,12.20
2019-03-08T15:22:51.201Z,12.20
2019-03-08T15:25:21.027Z,12.30
2019-03-08T15:27:51.680Z,12.30
2019-03-08T15:30:22.492Z,12.30
2019-03-08T15:32:52.154Z,12.30
2019-03-08T15:35:21.922Z,12.30
2019-03-08T15:37:51.667Z,12.40
2019-03-08T15:40:21.596Z,12.40
2019-03-08T15:42:51.324Z,12.40
2019-03-08T15:45:21.455Z,12.40
2019-03-08T15:47:51.139Z,12.40
2019-03-08T15:50:20.875Z,12.30
2019-03-08T15:52:51.483Z,12.30
2019-03-08T15:55:22.552Z,12.30
2019-03-08T15:57:52.275Z,12.30
2019-03-08T16:00:22.137Z,12.20
2019-03-08T16:02:54.402Z,12.20
2019-03-08T16:05:23.960Z,12.20
2019-03-08T16:07:57.701Z,12.10
2019-03-08T16:10:27.160Z,12.10
2019-03-08T16:12:56.887Z,12.10
2019-03-08T16:15:26.638Z,12.10
2019-03-08T16:17:56.322Z,12.00
2019-03-08T16:20:25.982Z,12.00
2019-03-08T16:22:55.989Z,12.00
2019-03-08T16:25:25.644Z,11.90
2019-03-08T16:27:55.443Z,11.90
2019-03-08T16:30:30.417Z,11.90
2019-03-08T16:33:06.951Z,11.90
2019-03-08T16:35:58.512Z,11.80
2019-03-08T16:38:34.329Z,11.80
2019-03-08T16:41:26.108Z,11.80
2019-03-08T16:44:08.808Z,11.80
2019-03-08T16:46:59.483Z,11.70
2019-03-08T16:49:56.860Z,11.70
2019-03-08T16:52:44.127Z,11.70
2019-03-08T16:55:43.656Z,11.70
2019-03-08T16:58:44.833Z,11.60
2019-03-08T17:01:46.018Z,11.60
2019-03-08T17:04:31.044Z,11.50
2019-03-08T17:07:38.935Z,11.50
2019-03-08T17:10:18.182Z,11.50
2019-03-08T17:13:25.785Z,11.50
2019-03-08T17:16:12.998Z,11.40
2019-03-08T17:19:13.934Z,11.40
2019-03-08T17:21:51.732Z,11.40
2019-03-08T17:24:31.663Z,11.40
2019-03-08T17:27:11.624Z,11.40
2019-03-08T17:30:00.556Z,11.40
2019-03-08T17:32:41.862Z,11.40
2019-03-08T17:35:25.399Z,11.40
2019-03-08T17:38:01.740Z,11.40
2019-03-08T17:40:49.428Z,11.40
2019-03-08T17:43:29.839Z,11.30
2019-03-08T17:46:17.323Z,11.30
2019-03-08T17:49:00.789Z,11.30
2019-03-08T17:51:48.684Z,11.30
2019-03-08T17:54:43.255Z,11.30
2019-03-08T17:57:32.376Z,11.20
2019-03-08T18:00:10.360Z,11.20
2019-03-08T18:02:49.032Z,11.20
2019-03-08T18:05:44.286Z,11.20
2019-03-08T18:08:29.063Z,11.10
2019-03-08T18:11:16.499Z,11.10
2019-03-08T18:13:52.840Z,11.10
2019-03-08T18:16:41.589Z,11.10
2019-03-08T18:19:29.232Z,11.10
2019-03-08T18:22:30.360Z,11.00
2019-03-08T18:25:09.903Z,11.00
2019-03-08T18:27:58.660Z,11.00
2019-03-08T18:30:50.500Z,11.00
2019-03-08T18:33:25.111Z,11.00
2019-03-08T18:36:23.107Z,11.00
2019-03-08T18:39:13.680Z,11.00
2019-03-08T18:41:59.290Z,11.00
2019-03-08T18:44:48.264Z,11.00
2019-03-08T18:47:40.751Z,11.00
2019-03-08T18:50:44.718Z,11.00
2019-03-08T18:53:33.483Z,10.90
2019-03-08T18:56:21.079Z,10.90
2019-03-08T18:59:11.641Z,10.90
2019-03-08T19:02:12.490Z,10.90
2019-03-08T19:04:54.609Z,10.90
2019-03-08T19:07:46.465Z,10.90
2019-03-08T19:10:30.079Z,10.80
2019-03-08T19:13:05.991Z,10.90
2019-03-08T19:15:53.763Z,10.80
2019-03-08T19:18:31.610Z,10.90
2019-03-08T19:21:26.555Z,10.80
2019-03-08T19:24:02.262Z,10.80
2019-03-08T19:26:57.985Z,10.90
2019-03-08T19:29:48.932Z,10.80
2019-03-08T19:32:43.840Z,10.80
2019-03-08T19:35:42.008Z,10.80
2019-03-08T19:38:29.718Z,10.70
2019-03-08T19:41:07.659Z,10.70
2019-03-08T19:44:02.585Z,10.60
2019-03-08T19:47:02.718Z,10.60
2019-03-08T19:49:51.551Z,10.50
2019-03-08T19:52:43.544Z,10.50
2019-03-08T19:55:20.145Z,10.40
2019-03-08T19:58:21.296Z,10.40
2019-03-08T20:01:00.403Z,10.30
2019-03-08T20:03:46.112Z,10.20
2019-03-08T20:06:34.020Z,10.20
2019-03-08T20:09:19.132Z,10.10
2019-03-08T20:11:58.257Z,10.10
2019-03-08T20:14:45.784Z,10.00
2019-03-08T20:17:30.497Z,10.00
2019-03-08T20:20:22.413Z,10.00
2019-03-08T20:22:58.511Z,9.90
2019-03-08T20:25:40.803Z,9.90
2019-03-08T20:28:28.443Z,9.90
2019-03-08T20:31:11.347Z,9.80
2019-03-08T20:33:47.820Z,9.80
2019-03-08T20:36:42.549Z,9.80
2019-03-08T20:39:31.202Z,9.80
2019-03-08T20:42:26.043Z,9.70
2019-03-08T20:45:04.204Z,9.70
2019-03-08T20:47:35.539Z,9.70
2019-03-08T20:50:07.027Z,9.70
2019-03-08T20:52:38.339Z,9.70
2019-03-08T20:55:08.760Z,9.60
2019-03-08T20:57:38.486Z,9.60
2019-03-08T21:00:09.519Z,9.60
2019-03-08T21:02:39.637Z,9.60
2019-03-08T21:05:09.502Z,9.60
2019-03-08T21:07:39.395Z,9.60
2019-03-08T21:10:10.530Z,9.60
2019-03-08T21:12:40.836Z,9.60
2019-03-08T21:15:11.430Z,9.60
2019-03-08T21:17:41.720Z,9.60
2019-03-08T21:20:11.991Z,9.60
2019-03-08T21:22:41.774Z,9.60
2019-03-08T21:25:12.007Z,9.60
2019-03-08T21:27:41.745Z,9.60
2019-03-08T21:30:14.628Z,9.60
2019-03-08T21:32:44.585Z,9.60
2019-03-08T21:35:14.392Z,9.60
2019-03-08T21:37:45.668Z,9.60
2019-03-08T21:40:15.548Z,9.60
2019-03-08T21:42:45.332Z,9.60
2019-03-08T21:45:15.059Z,9.60
2019-03-08T21:47:45.043Z,9.60
2019-03-08T21:50:15.180Z,9.70
2019-03-08T21:52:44.912Z,9.60
2019-03-08T21:55:14.653Z,9.70
2019-03-08T21:57:44.424Z,9.60
2019-03-08T22:00:16.216Z,9.60
2019-03-08T22:02:46.236Z,9.60
2019-03-08T22:05:20.670Z,9.70
2019-03-08T22:07:50.417Z,9.70
2019-03-08T22:10:29.239Z,9.70
2019-03-08T22:12:58.975Z,9.70
2019-03-08T22:15:29.891Z,9.70
2019-03-08T22:17:59.621Z,9.70
2019-03-08T22:20:30.394Z,9.70
2019-03-08T22:23:00.055Z,9.70
2019-03-08T22:25:29.779Z,9.70
2019-03-08T22:27:59.421Z,9.70
2019-03-08T22:30:29.182Z,9.70
2019-03-08T22:32:58.896Z,9.70
2019-03-08T22:35:28.560Z,9.80
2019-03-08T22:37:58.214Z,9.80
2019-03-08T22:40:27.940Z,9.80
2019-03-08T22:42:57.680Z,9.90
2019-03-08T22:45:27.436Z,9.80
2019-03-08T22:47:57.084Z,9.90
2019-03-08T22:50:26.747Z,9.90
2019-03-08T22:52:56.393Z,9.90
2019-03-08T22:55:26.134Z,10.00
2019-03-08T22:57:55.783Z,10.00
2019-03-08T23:00:50.789Z,10.00
2019-03-08T23:03:22.624Z,10.00
2019-03-08T23:05:52.283Z,10.10
2019-03-08T23:08:23.253Z,10.10
2019-03-08T23:10:53.018Z,10.10
2019-03-08T23:13:22.824Z,10.10
2019-03-08T23:15:52.644Z,10.10
2019-03-08T23:18:22.344Z,10.20
2019-03-08T23:20:52.081Z,10.20
2019-03-08T23:23:21.879Z,10.20
2019-03-08T23:25:51.632Z,10.20
2019-03-08T23:28:43.667Z,10.20
2019-03-08T23:31:22.131Z,10.20
2019-03-08T23:33:51.884Z,10.20
2019-03-08T23:36:22.623Z,10.20
2019-03-08T23:38:52.317Z,10.20
2019-03-08T23:41:22.356Z,10.20
2019-03-08T23:43:52.035Z,10.20
2019-03-08T23:46:21.694Z,10.20
2019-03-08T23:48:51.416Z,10.20
2019-03-08T23:51:21.162Z,10.20
2019-03-08T23:53:50.899Z,10.10
2019-03-08T23:56:20.597Z,10.10
2019-03-08T23:58:50.256Z,10.10
